createdAt,value
2022-09-17T00:01:06.688Z,101265.91
2022-09-17T00:03:36.363Z,101268.59
2022-09-17T00:06:05.648Z,101274.81
2022-09-17T00:08:32.765Z,101291.53
2022-09-17T00:11:05.867Z,101286.31
2022-09-17T00:13:32.292Z,101296.84
2022-09-17T00:15:58.729Z,101307.09
2022-09-17T00:18:25.350Z,101310.09
2022-09-17T00:20:51.699Z,101324.56
2022-09-17T00:23:18.097Z,101324.66
2022-09-17T00:25:45.759Z,101317.75
2022-09-17T00:28:13.949Z,101320.88
2022-09-17T00:30:45.016Z,101300.34
2022-09-17T00:33:13.150Z,101306.63
2022-09-17T00:35:39.724Z,101310.03
2022-09-17T00:38:06.104Z,101289.47
2022-09-17T00:40:32.781Z,101302.84
2022-09-17T00:42:59.281Z,101303.50
2022-09-17T00:45:27.277Z,101303.09
2022-09-17T00:48:02.623Z,101291.75
2022-09-17T00:50:33.705Z,101283.47
2022-09-17T00:53:04.813Z,101287.47
2022-09-17T00:55:36.183Z,101286.31
2022-09-17T00:58:05.698Z,101278.16
2022-09-17T01:00:32.736Z,101292.72
2022-09-17T01:03:00.195Z,101281.88
2022-09-17T01:05:45.787Z,101278.38
2022-09-17T01:08:33.942Z,101269.72
2022-09-17T01:11:37.777Z,101268.69
2022-09-17T01:14:28.471Z,101276.09
2022-09-17T01:17:13.209Z,101269.06
2022-09-17T01:19:51.801Z,101275.91
2022-09-17T01:22:57.159Z,101274.22
2022-09-17T01:25:34.750Z,101261.47
2022-09-17T01:28:22.615Z,101264.63
2022-09-17T01:30:51.741Z,101274.81
2022-09-17T01:33:35.028Z,101276.25
2022-09-17T01:36:33.977Z,101288.88
2022-09-17T01:39:13.194Z,101295.63
2022-09-17T01:41:48.004Z,101301.97
2022-09-17T01:44:26.527Z,101292.44
2022-09-17T01:46:58.747Z,101299.84
2022-09-17T01:49:26.535Z,101308.28
2022-09-17T01:51:55.043Z,101306.97
2022-09-17T01:54:59.689Z,101295.81
2022-09-17T01:57:34.305Z,101289.22
2022-09-17T02:00:11.449Z,101293.13
2022-09-17T02:03:10.604Z,101295.84
2022-09-17T02:05:44.479Z,101283.22
2022-09-17T02:08:21.906Z,101284.88
2022-09-17T02:10:56.031Z,101289.06
2022-09-17T02:13:28.337Z,101293.63
2022-09-17T02:16:03.810Z,101269.91
2022-09-17T02:18:38.047Z,101306.13
2022-09-17T02:21:15.631Z,101310.66
2022-09-17T02:24:00.101Z,101314.06
2022-09-17T02:26:27.857Z,101310.03
2022-09-17T02:28:59.163Z,101320.03
2022-09-17T02:31:25.629Z,101318.00
2022-09-17T02:33:57.294Z,101314.00
2022-09-17T02:36:25.021Z,101310.41
2022-09-17T02:38:58.466Z,101308.72
2022-09-17T02:41:35.846Z,101307.94
2022-09-17T02:44:28.066Z,101310.13
2022-09-17T02:47:13.778Z,101314.50
2022-09-17T02:50:05.914Z,101309.19
2022-09-17T02:52:49.343Z,101300.75
2022-09-17T02:55:24.648Z,101295.19
2022-09-17T02:58:09.885Z,101305.16
2022-09-17T03:00:36.564Z,101310.44
2022-09-17T03:03:31.990Z,101303.19
2022-09-17T03:05:59.783Z,101292.03
2022-09-17T03:08:34.268Z,101279.88
2022-09-17T03:11:00.679Z,101281.97
2022-09-17T03:13:27.057Z,101303.56
2022-09-17T03:15:53.494Z,101313.88
2022-09-17T03:18:19.878Z,101300.88
2022-09-17T03:20:46.895Z,101296.88
2022-09-17T03:23:13.291Z,101310.91
2022-09-17T03:25:39.650Z,101301.19
2022-09-17T03:28:06.067Z,101283.63
2022-09-17T03:30:32.462Z,101293.97
2022-09-17T03:32:58.923Z,101286.91
2022-09-17T03:35:25.335Z,101283.88
2022-09-17T03:37:51.721Z,101290.50
2022-09-17T03:40:18.801Z,101278.81
2022-09-17T03:42:45.747Z,101282.19
2022-09-17T03:45:12.390Z,101290.47
2022-09-17T03:47:38.899Z,101290.06
2022-09-17T03:50:06.427Z,101305.53
2022-09-17T03:52:32.797Z,101293.94
2022-09-17T03:54:59.197Z,101306.09
2022-09-17T03:57:25.886Z,101292.03
2022-09-17T03:59:52.300Z,101288.06
2022-09-17T04:02:18.862Z,101283.75
2022-09-17T04:04:45.212Z,101280.03
2022-09-17T04:07:11.540Z,101293.06
2022-09-17T04:09:38.015Z,101294.91
2022-09-17T04:12:04.449Z,101294.91
2022-09-17T04:14:30.973Z,101303.22
2022-09-17T04:16:59.066Z,101313.53
2022-09-17T04:19:25.436Z,101322.63
2022-09-17T04:21:52.738Z,101341.09
2022-09-17T04:24:19.213Z,101375.53
2022-09-17T04:26:45.601Z,101387.41
2022-09-17T04:29:11.979Z,101396.41
2022-09-17T04:31:38.410Z,101399.75
2022-09-17T04:34:04.909Z,101400.13
2022-09-17T04:36:31.304Z,101387.28
2022-09-17T04:38:57.787Z,101388.91
2022-09-17T04:41:24.165Z,101389.94
2022-09-17T04:43:50.679Z,101388.91
2022-09-17T04:46:17.213Z,101382.28
2022-09-17T04:48:43.805Z,101373.25
2022-09-17T04:51:10.258Z,101382.09
2022-09-17T04:53:38.471Z,101375.28
2022-09-17T04:56:05.325Z,101364.75
2022-09-17T04:58:32.997Z,101355.47
2022-09-17T05:00:59.586Z,101361.28
2022-09-17T05:03:26.364Z,101360.63
2022-09-17T05:05:52.795Z,101366.63
2022-09-17T05:08:19.209Z,101376.56
2022-09-17T05:10:45.708Z,101377.22
2022-09-17T05:13:12.074Z,101374.59
2022-09-17T05:15:38.653Z,101369.34
2022-09-17T05:18:05.135Z,101376.81
2022-09-17T05:20:31.730Z,101367.13
2022-09-17T05:22:58.193Z,101362.03
2022-09-17T05:25:24.606Z,101364.44
2022-09-17T05:27:52.837Z,101365.38
2022-09-17T05:30:19.780Z,101355.47
2022-09-17T05:32:47.121Z,101352.53
2022-09-17T05:35:13.679Z,101347.44
2022-09-17T05:37:40.459Z,101352.41
2022-09-17T05:40:08.191Z,101356.06
2022-09-17T05:42:35.056Z,101366.06
2022-09-17T05:45:01.590Z,101385.16
2022-09-17T05:47:28.043Z,101392.00
2022-09-17T05:49:55.493Z,101401.00
2022-09-17T05:52:21.964Z,101393.66
2022-09-17T05:54:48.644Z,101384.94
2022-09-17T05:57:15.995Z,101372.91
2022-09-17T05:59:42.646Z,101375.91
2022-09-17T06:02:13.700Z,101393.41
2022-09-17T06:04:40.430Z,101402.84
2022-09-17T06:07:09.160Z,101398.06
2022-09-17T06:09:38.973Z,101402.22
2022-09-17T06:12:05.819Z,101406.19
2022-09-17T06:14:32.306Z,101425.19
2022-09-17T06:16:58.752Z,101420.09
2022-09-17T06:19:25.191Z,101423.25
2022-09-17T06:21:51.851Z,101437.13
2022-09-17T06:24:18.350Z,101430.13
2022-09-17T06:26:44.764Z,101419.44
2022-09-17T06:29:11.903Z,101423.16
2022-09-17T06:31:38.340Z,101419.22
2022-09-17T06:34:05.643Z,101407.56
2022-09-17T06:36:32.054Z,101409.69
2022-09-17T06:38:58.587Z,101411.06
2022-09-17T06:41:24.941Z,101410.06
2022-09-17T06:43:54.268Z,101374.34
2022-09-17T06:46:20.830Z,101400.03
2022-09-17T06:48:47.609Z,101391.72
2022-09-17T06:51:14.759Z,101391.38
2022-09-17T06:53:41.585Z,101386.94
2022-09-17T06:56:09.728Z,101395.19
2022-09-17T06:58:37.304Z,101409.44
2022-09-17T07:01:05.127Z,101393.34
2022-09-17T07:03:32.402Z,101395.44
2022-09-17T07:05:58.945Z,101390.66
2022-09-17T07:08:28.545Z,101387.53
2022-09-17T07:10:56.452Z,101387.47
2022-09-17T07:13:23.439Z,101386.25
2022-09-17T07:16:00.766Z,101387.22
2022-09-17T07:18:27.325Z,101380.78
2022-09-17T07:21:05.082Z,101404.88
2022-09-17T07:23:35.957Z,101414.81
2022-09-17T07:26:09.048Z,101429.50
2022-09-17T07:28:38.209Z,101428.25
2022-09-17T07:31:11.272Z,101425.50
2022-09-17T07:33:41.166Z,101418.81
2022-09-17T07:36:10.621Z,101397.22
2022-09-17T07:38:37.427Z,101414.84
2022-09-17T07:41:06.387Z,101415.31
2022-09-17T07:43:35.250Z,101411.41
2022-09-17T07:46:03.852Z,101412.56
2022-09-17T07:48:30.694Z,101405.97
2022-09-17T07:50:57.517Z,101396.72
2022-09-17T07:53:24.352Z,101390.13
2022-09-17T07:55:55.239Z,101395.31
2022-09-17T07:58:23.564Z,101399.13
2022-09-17T08:00:50.098Z,101411.25
2022-09-17T08:03:17.108Z,101423.09
2022-09-17T08:05:43.552Z,101428.13
2022-09-17T08:08:11.362Z,101422.22
2022-09-17T08:10:37.767Z,101409.81
2022-09-17T08:13:04.185Z,101430.25
2022-09-17T08:15:30.665Z,101434.78
2022-09-17T08:17:57.064Z,101452.19
2022-09-17T08:20:26.143Z,101455.09
2022-09-17T08:22:59.675Z,101433.53
2022-09-17T08:25:26.637Z,101441.00
2022-09-17T08:27:55.166Z,101432.13
2022-09-17T08:30:22.236Z,101439.84
2022-09-17T08:32:48.669Z,101432.66
2022-09-17T08:35:16.397Z,101435.56
2022-09-17T08:37:42.975Z,101435.69
2022-09-17T08:40:23.111Z,101421.78
2022-09-17T08:42:56.591Z,101413.22
2022-09-17T08:45:23.707Z,101418.75
2022-09-17T08:47:50.274Z,101429.25
2022-09-17T08:50:23.723Z,101436.88
2022-09-17T08:52:59.638Z,101432.25
2022-09-17T08:55:37.261Z,101435.34
2022-09-17T08:58:28.426Z,101433.88
2022-09-17T09:01:08.698Z,101436.59
2022-09-17T09:04:05.040Z,101444.22
2022-09-17T09:06:37.808Z,101426.91
2022-09-17T09:09:14.788Z,101444.41
2022-09-17T09:11:42.763Z,101428.88
2022-09-17T09:14:27.093Z,101438.41
2022-09-17T09:16:56.584Z,101432.50
2022-09-17T09:19:27.115Z,101435.72
2022-09-17T09:22:03.644Z,101430.78
2022-09-17T09:24:40.909Z,101414.13
2022-09-17T09:27:13.278Z,101434.88
2022-09-17T09:30:04.846Z,101426.63
2022-09-17T09:33:05.230Z,101409.47
2022-09-17T09:35:34.687Z,101400.66
2022-09-17T09:38:11.257Z,101409.28
2022-09-17T09:40:48.653Z,101413.88
2022-09-17T09:43:21.338Z,101435.38
2022-09-17T09:46:03.166Z,101440.41
2022-09-17T09:48:57.867Z,101436.16
2022-09-17T09:51:36.383Z,101432.13
2022-09-17T09:54:20.994Z,101429.13
2022-09-17T09:57:13.986Z,101418.56
2022-09-17T09:59:41.466Z,101403.41
2022-09-17T10:02:08.797Z,101403.22
2022-09-17T10:04:35.570Z,101406.63
2022-09-17T10:07:08.052Z,101414.38
2022-09-17T10:09:37.022Z,101407.69
2022-09-17T10:12:25.990Z,101394.38
2022-09-17T10:14:54.019Z,101403.16
2022-09-17T10:17:26.053Z,101403.34
2022-09-17T10:20:01.864Z,101401.91
2022-09-17T10:22:39.858Z,101425.81
2022-09-17T10:25:20.878Z,101418.00
2022-09-17T10:27:48.511Z,101424.97
2022-09-17T10:30:17.472Z,101422.22
2022-09-17T10:32:44.095Z,101423.34
2022-09-17T10:35:16.555Z,101409.69
2022-09-17T10:37:46.852Z,101396.94
2022-09-17T10:40:19.359Z,101394.75
2022-09-17T10:42:47.301Z,101403.53
2022-09-17T10:45:40.694Z,101380.03
2022-09-17T10:48:18.454Z,101383.97
2022-09-17T10:50:50.289Z,101369.75
2022-09-17T10:53:18.276Z,101381.09
2022-09-17T10:55:53.032Z,101389.63
2022-09-17T10:59:07.694Z,101372.16
2022-09-17T11:01:49.240Z,101392.66
2022-09-17T11:04:25.856Z,101392.75
2022-09-17T11:07:13.814Z,101390.00
2022-09-17T11:09:49.412Z,101380.69
2022-09-17T11:12:51.865Z,101393.22
2022-09-17T11:15:43.392Z,101382.22
2022-09-17T11:18:28.569Z,101380.28
2022-09-17T11:21:16.658Z,101383.97
2022-09-17T11:23:58.323Z,101385.56
2022-09-17T11:26:44.915Z,101383.25
2022-09-17T11:29:23.855Z,101364.03
2022-09-17T11:32:05.393Z,101378.13
2022-09-17T11:35:12.006Z,101395.09
2022-09-17T11:37:48.936Z,101381.63
2022-09-17T11:40:25.101Z,101383.56
2022-09-17T11:42:59.066Z,101378.47
2022-09-17T11:45:47.417Z,101381.34
2022-09-17T11:48:19.305Z,101384.41
2022-09-17T11:50:53.067Z,101395.94
2022-09-17T11:53:38.080Z,101393.69
2022-09-17T11:56:28.206Z,101382.50
2022-09-17T11:59:03.872Z,101395.09
2022-09-17T12:01:52.260Z,101398.91
2022-09-17T12:04:27.927Z,101394.75
2022-09-17T12:07:37.923Z,101359.59
2022-09-17T12:10:23.420Z,101393.72
2022-09-17T12:13:05.217Z,101399.91
2022-09-17T12:15:36.226Z,101367.28
2022-09-17T12:18:34.832Z,101406.19
2022-09-17T12:21:04.615Z,101398.53
2022-09-17T12:23:33.722Z,101392.13
2022-09-17T12:26:15.795Z,101400.81
2022-09-17T12:28:59.116Z,101409.53
2022-09-17T12:31:42.852Z,101391.47
2022-09-17T12:34:27.653Z,101406.75
2022-09-17T12:37:11.103Z,101393.06
2022-09-17T12:39:40.178Z,101401.78
2022-09-17T12:42:40.779Z,101382.50
2022-09-17T12:45:31.413Z,101400.84
2022-09-17T12:48:25.520Z,101403.53
2022-09-17T12:51:22.665Z,101401.63
2022-09-17T12:54:11.030Z,101397.97
2022-09-17T12:56:54.644Z,101402.16
2022-09-17T12:59:28.444Z,101418.78
2022-09-17T13:02:02.394Z,101407.28
2022-09-17T13:05:01.273Z,101415.00
2022-09-17T13:07:46.559Z,101400.38
2022-09-17T13:10:23.930Z,101401.78
2022-09-17T13:12:57.301Z,101386.69
2022-09-17T13:16:16.922Z,101385.41
2022-09-17T13:19:15.113Z,101377.69
2022-09-17T13:21:51.480Z,101371.88
2022-09-17T13:24:21.574Z,101377.69
2022-09-17T13:26:48.851Z,101400.66
2022-09-17T13:29:49.032Z,101420.53
2022-09-17T13:32:33.831Z,101413.13
2022-09-17T13:35:06.400Z,101395.34
2022-09-17T13:37:38.859Z,101379.66
2022-09-17T13:40:21.851Z,101379.22
2022-09-17T13:42:51.868Z,101392.84
2022-09-17T13:45:19.236Z,101396.34
2022-09-17T13:47:52.463Z,101411.84
2022-09-17T13:50:41.991Z,101409.34
2022-09-17T13:53:14.322Z,101413.09
2022-09-17T13:55:45.083Z,101392.63
2022-09-17T13:58:23.584Z,101418.91
2022-09-17T14:00:59.336Z,101409.63
2022-09-17T14:03:28.906Z,101433.41
2022-09-17T14:05:55.986Z,101416.66
2022-09-17T14:08:30.467Z,101417.69
2022-09-17T14:11:02.677Z,101412.50
2022-09-17T14:13:43.474Z,101422.84
2022-09-17T14:16:28.370Z,101409.38
2022-09-17T14:19:16.050Z,101420.16
2022-09-17T14:21:44.339Z,101425.13
2022-09-17T14:24:25.088Z,101415.63
2022-09-17T14:27:06.758Z,101416.84
2022-09-17T14:29:54.426Z,101412.09
2022-09-17T14:32:35.538Z,101391.25
2022-09-17T14:35:31.159Z,101422.44
2022-09-17T14:38:09.278Z,101425.16
2022-09-17T14:40:41.340Z,101416.47
2022-09-17T14:43:18.391Z,101416.91
2022-09-17T14:45:50.146Z,101404.72
2022-09-17T14:48:32.135Z,101416.91
2022-09-17T14:51:19.797Z,101412.34
2022-09-17T14:54:06.543Z,101408.84
2022-09-17T14:56:46.430Z,101398.50
2022-09-17T14:59:31.613Z,101425.78
2022-09-17T15:01:58.193Z,101418.13
2022-09-17T15:04:28.522Z,101422.06
2022-09-17T15:07:13.158Z,101422.47
2022-09-17T15:09:39.520Z,101415.88
2022-09-17T15:12:07.718Z,101422.25
2022-09-17T15:14:38.183Z,101398.91
2022-09-17T15:17:05.847Z,101422.47
2022-09-17T15:19:38.595Z,101423.09
2022-09-17T15:22:16.422Z,101433.63
2022-09-17T15:24:54.170Z,101419.56
2022-09-17T15:27:25.885Z,101416.88
2022-09-17T15:29:58.361Z,101412.34
2022-09-17T15:32:25.236Z,101442.78
2022-09-17T15:35:19.941Z,101476.53
2022-09-17T15:38:21.132Z,101493.63
2022-09-17T15:40:43.309Z,101490.59
2022-09-17T15:43:33.998Z,101492.16
2022-09-17T15:46:24.865Z,101494.63
2022-09-17T15:48:51.399Z,101485.34
2022-09-17T15:51:29.625Z,101478.13
2022-09-17T15:54:01.416Z,101476.91
2022-09-17T15:56:40.447Z,101475.72
2022-09-17T15:59:26.841Z,101474.53
2022-09-17T16:01:56.737Z,101478.25
2022-09-17T16:04:31.587Z,101454.69
2022-09-17T16:07:21.037Z,101469.81
2022-09-17T16:09:53.592Z,101467.94
2022-09-17T16:12:22.480Z,101461.97
2022-09-17T16:14:54.466Z,101464.66
2022-09-17T16:17:36.143Z,101461.34
2022-09-17T16:20:23.706Z,101471.03
2022-09-17T16:22:52.264Z,101484.84
2022-09-17T16:25:23.002Z,101474.03
2022-09-17T16:27:58.981Z,101493.03
2022-09-17T16:30:25.943Z,101487.88
2022-09-17T16:32:53.708Z,101482.50
2022-09-17T16:35:25.944Z,101460.94
2022-09-17T16:37:54.631Z,101492.34
2022-09-17T16:40:23.780Z,101475.78
2022-09-17T16:42:50.227Z,101468.16
2022-09-17T16:45:16.885Z,101478.06
2022-09-17T16:47:43.877Z,101483.19
2022-09-17T16:50:13.253Z,101493.47
2022-09-17T16:52:39.776Z,101471.91
2022-09-17T16:55:06.917Z,101477.03
2022-09-17T16:57:33.766Z,101475.75
2022-09-17T17:00:00.954Z,101473.06
2022-09-17T17:02:27.674Z,101472.28
2022-09-17T17:04:54.350Z,101481.00
2022-09-17T17:07:21.261Z,101468.03
2022-09-17T17:09:48.091Z,101464.53
2022-09-17T17:12:14.538Z,101458.56
2022-09-17T17:14:40.963Z,101463.91
2022-09-17T17:17:07.326Z,101469.66
2022-09-17T17:19:34.775Z,101471.13
2022-09-17T17:22:01.360Z,101452.34
2022-09-17T17:24:27.977Z,101466.00
2022-09-17T17:26:54.414Z,101455.09
2022-09-17T17:29:20.833Z,101458.84
2022-09-17T17:31:49.446Z,101468.34
2022-09-17T17:34:15.904Z,101466.50
2022-09-17T17:36:42.710Z,101512.78
2022-09-17T17:39:09.646Z,101533.97
2022-09-17T17:41:36.126Z,101528.19
2022-09-17T17:44:02.835Z,101525.75
2022-09-17T17:46:29.446Z,101523.97
2022-09-17T17:48:55.984Z,101512.94
2022-09-17T17:51:23.861Z,101503.38
2022-09-17T17:53:51.472Z,101500.50
2022-09-17T17:56:18.456Z,101491.47
2022-09-17T17:58:44.844Z,101485.66
2022-09-17T18:01:14.843Z,101495.47
2022-09-17T18:03:41.550Z,101489.28
2022-09-17T18:06:08.824Z,101488.16
2022-09-17T18:08:37.757Z,101491.56
2022-09-17T18:11:05.471Z,101495.78
2022-09-17T18:13:31.938Z,101488.63
2022-09-17T18:16:00.654Z,101489.25
2022-09-17T18:18:47.725Z,101476.66
2022-09-17T18:21:16.666Z,101497.47
2022-09-17T18:23:43.728Z,101501.06
2022-09-17T18:26:23.906Z,101504.19
2022-09-17T18:28:51.679Z,101500.63
2022-09-17T18:31:28.402Z,101506.38
2022-09-17T18:34:04.196Z,101485.91
2022-09-17T18:36:32.866Z,101489.44
2022-09-17T18:41:51.633Z,101481.88
2022-09-17T18:44:21.471Z,101494.41
2022-09-17T18:46:49.506Z,101490.59
2022-09-17T18:49:16.227Z,101492.59
2022-09-17T18:51:42.788Z,101488.56
2022-09-17T18:54:15.342Z,101496.66
2022-09-17T18:56:42.155Z,101504.94
2022-09-17T18:59:09.050Z,101507.88
2022-09-17T19:01:35.864Z,101523.78
2022-09-17T19:04:03.150Z,101507.78
2022-09-17T19:06:30.463Z,101529.63
2022-09-17T19:09:00.489Z,101529.38
2022-09-17T19:11:27.945Z,101533.00
2022-09-17T19:13:54.470Z,101547.06
2022-09-17T19:16:22.259Z,101552.63
2022-09-17T19:18:48.821Z,101533.75
2022-09-17T19:21:17.911Z,101534.13
2022-09-17T19:23:49.663Z,101539.25
2022-09-17T19:26:27.207Z,101534.69
2022-09-17T19:28:55.675Z,101511.88
2022-09-17T19:31:22.601Z,101527.28
2022-09-17T19:33:49.095Z,101537.19
2022-09-17T19:36:17.201Z,101521.34
2022-09-17T19:38:44.526Z,101530.13
2022-09-17T19:41:13.448Z,101509.31
2022-09-17T19:43:40.108Z,101519.16
2022-09-17T19:46:10.346Z,101525.50
2022-09-17T19:48:37.417Z,101516.47
2022-09-17T19:51:05.096Z,101501.47
2022-09-17T19:53:32.850Z,101510.47
2022-09-17T19:55:59.262Z,101502.59
2022-09-17T19:58:25.616Z,101517.28
2022-09-17T20:00:56.043Z,101521.25
2022-09-17T20:03:22.693Z,101517.53
2022-09-17T20:05:49.237Z,101503.44
2022-09-17T20:08:16.077Z,101503.50
2022-09-17T20:10:42.593Z,101508.59
2022-09-17T20:13:09.003Z,101519.25
2022-09-17T20:15:36.055Z,101531.63
2022-09-17T20:18:03.485Z,101539.41
2022-09-17T20:20:30.023Z,101536.31
2022-09-17T20:22:56.686Z,101542.88
2022-09-17T20:25:25.513Z,101551.47
2022-09-17T20:27:53.190Z,101558.53
2022-09-17T20:30:19.863Z,101566.13
2022-09-17T20:32:46.285Z,101573.28
2022-09-17T20:35:12.878Z,101568.75
2022-09-17T20:40:26.156Z,101552.50
2022-09-17T20:42:53.627Z,101545.66
2022-09-17T20:45:20.045Z,101545.31
2022-09-17T20:47:48.863Z,101528.59
2022-09-17T20:50:15.893Z,101548.44
2022-09-17T20:52:42.242Z,101535.34
2022-09-17T20:55:08.929Z,101544.00
2022-09-17T20:57:35.379Z,101545.13
2022-09-17T21:00:14.862Z,101531.28
2022-09-17T21:02:42.290Z,101541.88
2022-09-17T21:05:11.434Z,101536.34
2022-09-17T21:07:39.374Z,101517.69
2022-09-17T21:10:06.360Z,101535.25
2022-09-17T21:12:32.815Z,101540.03
2022-09-17T21:14:59.423Z,101534.28
2022-09-17T21:17:25.794Z,101544.44
2022-09-17T21:19:52.796Z,101531.13
2022-09-17T21:22:19.450Z,101539.88
2022-09-17T21:24:45.951Z,101541.63
2022-09-17T21:27:15.177Z,101544.56
2022-09-17T21:29:41.527Z,101543.72
2022-09-17T21:32:07.963Z,101544.75
2022-09-17T21:34:34.346Z,101549.09
2022-09-17T21:37:04.826Z,101531.94
2022-09-17T21:39:34.944Z,101543.09
2022-09-17T21:42:01.661Z,101548.22
2022-09-17T21:44:28.155Z,101552.28
2022-09-17T21:46:57.509Z,101566.50
2022-09-17T21:49:25.055Z,101563.38
2022-09-17T21:51:51.815Z,101555.91
2022-09-17T21:54:18.608Z,101558.69
2022-09-17T21:56:45.532Z,101553.44
2022-09-17T21:59:14.240Z,101557.31
2022-09-17T22:01:46.947Z,101543.44
2022-09-17T22:04:16.315Z,101551.09
2022-09-17T22:06:44.733Z,101555.28
2022-09-17T22:09:23.046Z,101549.66
2022-09-17T22:11:50.768Z,101551.75
2022-09-17T22:14:19.884Z,101551.56
2022-09-17T22:16:49.381Z,101552.13
2022-09-17T22:19:17.994Z,101566.91
2022-09-17T22:21:48.227Z,101574.94
2022-09-17T22:24:16.033Z,101566.91
2022-09-17T22:26:45.412Z,101557.13
2022-09-17T22:29:17.861Z,101552.03
2022-09-17T22:31:45.013Z,101560.16
2022-09-17T22:34:15.078Z,101563.75
2022-09-17T22:36:42.094Z,101559.94
2022-09-17T22:39:08.865Z,101560.03
2022-09-17T22:41:37.771Z,101566.75
2022-09-17T22:44:06.262Z,101558.72
2022-09-17T22:46:39.326Z,101565.72
2022-09-17T22:49:07.371Z,101560.56
2022-09-17T22:51:33.755Z,101556.22
2022-09-17T22:54:00.370Z,101553.84
2022-09-17T22:56:28.122Z,101541.41
2022-09-17T22:58:56.862Z,101559.31
2022-09-17T23:01:25.931Z,101533.00
2022-09-17T23:03:53.559Z,101518.34
2022-09-17T23:06:22.683Z,101533.75
2022-09-17T23:08:49.380Z,101564.50
2022-09-17T23:11:21.895Z,101542.81
2022-09-17T23:13:49.399Z,101563.00
2022-09-17T23:16:16.309Z,101548.72
2022-09-17T23:18:44.068Z,101532.38
2022-09-17T23:21:13.360Z,101518.97
2022-09-17T23:23:41.731Z,101519.44
2022-09-17T23:26:11.576Z,101521.13
2022-09-17T23:28:38.582Z,101521.13
2022-09-17T23:31:08.516Z,101517.88
2022-09-17T23:33:35.411Z,101512.44
2022-09-17T23:36:12.925Z,101494.06
2022-09-17T23:38:40.715Z,101506.91
2022-09-17T23:41:12.636Z,101509.28
2022-09-17T23:43:39.151Z,101497.47
2022-09-17T23:46:05.888Z,101494.59
2022-09-17T23:48:32.386Z,101505.13
2022-09-17T23:50:58.843Z,101513.31
2022-09-17T23:53:25.429Z,101515.88
2022-09-17T23:55:52.298Z,101513.38
2022-09-17T23:58:18.724Z,101511.28
